createdAt,value
2023-03-29T00:06:22.958Z,9.54
2023-03-29T00:21:28.749Z,9.54
2023-03-29T00:36:34.381Z,9.46
2023-03-29T00:51:42.879Z,9.40
2023-03-29T01:06:55.328Z,9.36
2023-03-29T01:22:09.949Z,9.24
2023-03-29T01:37:25.016Z,9.16
2023-03-29T01:52:36.637Z,8.96
2023-03-29T02:07:44.971Z,9.03
2023-03-29T02:22:56.305Z,9.06
2023-03-29T02:38:05.413Z,9.19
2023-03-29T02:53:17.170Z,9.08
2023-03-29T03:08:22.863Z,8.90
2023-03-29T03:23:28.936Z,8.97
2023-03-29T03:38:34.855Z,8.88
2023-03-29T03:53:40.512Z,8.95
2023-03-29T04:08:48.194Z,8.97
2023-03-29T04:23:53.900Z,9.04
2023-03-29T04:39:01.646Z,8.95
2023-03-29T04:54:08.160Z,8.93
2023-03-29T05:09:13.842Z,8.94
2023-03-29T05:24:19.483Z,8.93
2023-03-29T05:39:25.174Z,8.80
2023-03-29T05:54:31.010Z,8.92
2023-03-29T06:09:36.548Z,9.00
2023-03-29T06:24:42.592Z,9.05
2023-03-29T06:39:53.481Z,9.23
2023-03-29T06:55:01.963Z,9.45
2023-03-29T07:10:09.206Z,9.68
2023-03-29T07:25:17.565Z,9.77
2023-03-29T07:40:24.854Z,9.94
2023-03-29T07:55:31.403Z,10.07
2023-03-29T08:10:39.716Z,10.19
2023-03-29T08:25:47.400Z,10.49
2023-03-29T08:40:53.688Z,11.02
2023-03-29T08:56:01.449Z,11.30
2023-03-29T09:11:30.411Z,11.59
2023-03-29T09:26:41.738Z,12.29
2023-03-29T09:41:52.547Z,12.57
2023-03-29T09:56:58.357Z,12.80
2023-03-29T10:12:08.494Z,14.13
2023-03-29T10:27:14.611Z,15.29
2023-03-29T10:42:25.321Z,17.01
2023-03-29T10:57:39.989Z,18.00
2023-03-29T11:12:55.578Z,18.54
2023-03-29T11:28:10.686Z,18.72
2023-03-29T11:43:22.038Z,19.50
2023-03-29T11:58:31.564Z,20.83
2023-03-29T12:13:41.956Z,20.21
2023-03-29T12:29:18.155Z,20.26
2023-03-29T12:44:25.771Z,19.66
2023-03-29T12:59:39.924Z,19.39
2023-03-29T13:14:47.838Z,19.90
2023-03-29T13:30:06.192Z,20.15
2023-03-29T13:45:25.025Z,20.81
2023-03-29T14:00:37.327Z,22.10
2023-03-29T14:15:46.934Z,20.95
2023-03-29T14:30:54.233Z,20.61
2023-03-29T14:46:00.344Z,20.74
2023-03-29T15:01:20.773Z,20.68
2023-03-29T15:16:30.990Z,20.17
2023-03-29T15:31:38.636Z,19.98
2023-03-29T15:46:44.741Z,19.85
2023-03-29T16:01:51.044Z,19.79
2023-03-29T16:17:00.686Z,19.67
2023-03-29T16:32:07.276Z,19.37
2023-03-29T16:47:13.714Z,18.97
2023-03-29T17:02:19.390Z,18.52
2023-03-29T17:17:25.362Z,18.14
2023-03-29T17:32:31.656Z,17.92
2023-03-29T17:47:37.751Z,17.45
2023-03-29T18:02:44.535Z,16.70
2023-03-29T18:17:50.651Z,16.69
2023-03-29T18:32:56.815Z,16.51
2023-03-29T18:48:06.342Z,16.42
2023-03-29T19:03:12.431Z,16.18
2023-03-29T19:18:18.347Z,16.12
2023-03-29T19:33:24.176Z,16.15
2023-03-29T19:48:30.041Z,16.05
2023-03-29T20:03:36.558Z,16.00
2023-03-29T20:18:45.130Z,15.74
2023-03-29T20:33:51.107Z,15.33
2023-03-29T20:48:57.227Z,15.11
2023-03-29T21:04:04.050Z,14.89
2023-03-29T21:19:10.245Z,14.78
2023-03-29T21:34:16.113Z,14.55
2023-03-29T21:49:22.142Z,14.60
2023-03-29T22:04:36.658Z,14.63
2023-03-29T22:19:44.127Z,14.53
2023-03-29T22:34:50.188Z,14.50
2023-03-29T22:49:56.186Z,14.43
2023-03-29T23:05:02.183Z,14.60
2023-03-29T23:20:11.241Z,14.70
2023-03-29T23:35:17.145Z,14.72
2023-03-29T23:50:23.308Z,14.72
